Terminal Aerodrome Forecast
Issued by NWS

Home | Current Version | Previous Version | Text Only | Print | Product List | Glossary On
Versions: 1 2 3 4 5 6 7 8 9 10 11 12 13
196
FTUS45 KTFX 250520
TAFHLN
TAF
KHLN 250520Z 2506/2606 VRB04KT P6SM SKC
     FM252100 34008KT P6SM SCT090
     FM260000 VRB06KT P6SM VCTS SCT070CB BKN100
     FM260300 35006KT P6SM SCT090=

USA.gov is the U.S. government's official web portal to all federal, state and local government web resources and services.